Time;durP1;ratioP1;P1;durP2;ratioP2;P2;SDS_P1;SDS_P2;PMS_P1;PMS_P2;Temp;Humidity;BMP_temperature;BMP_pressure;BME280_temperature;BME280_humidity;BME280_pressure;Samples;Min_cycle;Max_cycle;Signal;HPM_P1;HPM_P2
2020/12/13 00:00:24;;;;;;;75.42;54.08;;;;;;;1.61;93.80;100238.05;1771568;81;21317;-77
2020/12/13 00:03:28;;;;;;;38.83;25.35;;;;;;;1.63;93.75;100239.26;1772777;81;21866;-77
2020/12/13 00:06:34;;;;;;;40.95;30.52;;;;;;;1.63;93.70;100223.94;1772667;81;21784;-77
2020/12/13 00:09:39;;;;;;;38.15;20.80;;;;;;;1.62;93.68;100237.06;1754385;81;21316;-77
2020/12/13 00:12:46;;;;;;;55.28;40.45;;;;;;;1.60;93.66;100232.29;1772628;81;21305;-78
2020/12/13 00:15:52;;;;;;;39.78;29.37;;;;;;;1.58;93.70;100238.27;1772616;81;21202;-78
2020/12/13 00:18:58;;;;;;;62.38;38.08;;;;;;;1.60;93.73;100228.25;1771326;81;21312;-78
2020/12/13 00:22:04;;;;;;;31.65;22.93;;;;;;;1.60;93.74;100234.98;1772576;81;21300;-77
2020/12/13 00:25:10;;;;;;;56.80;39.95;;;;;;;1.60;93.73;100215.22;1772676;81;21292;-78
2020/12/13 00:28:16;;;;;;;60.52;43.02;;;;;;;1.59;93.74;100218.41;1771103;81;21292;-78
2020/12/13 00:31:23;;;;;;;63.17;43.80;;;;;;;1.59;93.76;100206.77;1772756;81;21624;-78
2020/12/13 00:34:32;;;;;;;50.40;29.92;;;;;;;1.54;93.80;100191.81;1772584;81;21166;-77
2020/12/13 00:37:37;;;;;;;65.55;47.05;;;;;;;1.54;93.85;100202.60;1771932;79;21205;-78
2020/12/13 00:40:42;;;;;;;68.80;48.87;;;;;;;1.57;93.87;100196.62;1772704;81;21697;-79
2020/12/13 00:43:47;;;;;;;40.60;25.25;;;;;;;1.54;93.87;100194.52;1772705;81;21273;-78
2020/12/13 00:46:54;;;;;;;61.20;43.68;;;;;;;1.57;93.87;100199.31;1772793;81;21304;-78
2020/12/13 00:50:00;;;;;;;60.12;40.45;;;;;;;1.58;93.83;100206.41;1772754;81;21301;-78
2020/12/13 00:53:06;;;;;;;64.03;42.50;;;;;;;1.55;93.81;100207.50;1770435;81;21221;-78
2020/12/13 00:56:12;;;;;;;46.85;30.02;;;;;;;1.57;93.79;100210.95;1772872;81;21324;-78
2020/12/13 00:59:18;;;;;;;64.95;38.38;;;;;;;1.53;93.78;100197.34;1771695;81;21273;-78
2020/12/13 01:02:24;;;;;;;64.80;50.92;;;;;;;1.53;93.82;100191.45;1772655;81;21296;-78
2020/12/13 01:05:30;;;;;;;61.60;45.10;;;;;;;1.54;93.80;100199.05;1772562;81;21328;-79
2020/12/13 01:08:35;;;;;;;31.25;23.52;;;;;;;1.51;93.72;100197.47;1771184;81;21860;-78
2020/12/13 01:11:41;;;;;;;63.58;46.25;;;;;;;1.48;93.75;100196.84;1771293;81;21202;-78
2020/12/13 01:14:48;;;;;;;52.88;26.73;;;;;;;1.47;93.83;100214.86;1771353;81;21305;-77
2020/12/13 01:17:55;;;;;;;57.43;35.92;;;;;;;1.46;93.88;100206.91;1772659;81;21781;-78
2020/12/13 01:21:01;;;;;;;43.23;28.00;;;;;;;1.45;93.93;100211.91;1772267;81;21372;-78
2020/12/13 01:24:06;;;;;;;40.55;29.15;;;;;;;1.48;93.92;100218.41;1772573;81;21312;-78
2020/12/13 01:27:11;;;;;;;63.28;46.15;;;;;;;1.50;93.90;100221.84;1772626;81;21301;-78
2020/12/13 01:30:17;;;;;;;36.45;17.77;;;;;;;1.52;93.85;100215.36;1772742;81;21185;-78
2020/12/13 01:33:22;;;;;;;75.47;56.33;;;;;;;1.52;93.76;100195.63;1772596;81;21302;-77
2020/12/13 01:36:30;;;;;;;45.10;27.42;;;;;;;1.49;93.63;100194.02;1772101;79;21281;-78
2020/12/13 01:39:38;;;;;;;56.88;34.13;;;;;;;1.48;93.58;100192.80;1771634;81;21336;-78
2020/12/13 01:42:48;;;;;;;36.48;20.92;;;;;;;1.45;93.57;100191.20;1772663;81;21827;-77
2020/12/13 01:45:54;;;;;;;75.20;57.23;;;;;;;1.46;93.51;100192.94;1772963;81;21305;-78
2020/12/13 01:49:07;;;;;;;44.88;28.27;;;;;;;1.45;93.46;100191.20;1772375;81;21844;-77
2020/12/13 01:55:39;;;;;;;45.78;31.20;;;;;;;1.45;93.47;100180.91;1752864;82;21302;-78
2020/12/13 01:58:49;;;;;;;42.60;25.60;;;;;;;1.41;93.49;100196.48;1751659;82;21908;-78
2020/12/13 02:01:56;;;;;;;54.83;38.50;;;;;;;1.38;93.36;100203.95;1753445;82;21310;-78
2020/12/13 02:05:03;;;;;;;35.83;25.23;;;;;;;1.38;93.36;100203.95;1753336;82;21838;-78
2020/12/13 02:08:09;;;;;;;61.73;38.75;;;;;;;1.36;93.36;100186.53;1752172;82;21302;-78
2020/12/13 02:11:15;;;;;;;36.25;23.18;;;;;;;1.35;93.38;100184.81;1753466;82;21817;-78
2020/12/13 02:14:21;;;;;;;65.50;45.78;;;;;;;1.36;93.36;100197.31;1752164;82;21287;-78
2020/12/13 02:17:27;;;;;;;40.35;24.85;;;;;;;1.36;93.31;100201.84;1752108;82;21223;-78
2020/12/13 02:20:32;;;;;;;123.97;101.92;;;;;;;1.35;93.28;100196.09;1752559;82;21342;-78
2020/12/13 02:23:44;;;;;;;34.08;20.82;;;;;;;1.33;93.30;100192.18;1752057;82;21315;-78
2020/12/13 02:26:51;;;;;;;71.25;55.55;;;;;;;1.33;93.28;100191.33;1753040;82;21306;-78
2020/12/13 02:29:56;;;;;;;36.30;24.32;;;;;;;1.34;93.32;100197.08;1752742;82;21291;-77
2020/12/13 02:33:03;;;;;;;89.60;71.77;;;;;;;1.35;93.30;100197.44;1753297;82;21196;-78
2020/12/13 02:36:07;;;;;;;37.10;24.70;;;;;;;1.36;93.24;100209.44;1753517;82;21302;-78
2020/12/13 02:39:14;;;;;;;64.47;43.33;;;;;;;1.38;93.17;100207.50;1752156;82;21314;-78
2020/12/13 02:42:21;;;;;;;28.98;20.43;;;;;;;1.39;93.07;100209.20;1752168;82;21747;-78
2020/12/13 02:45:27;;;;;;;54.48;36.55;;;;;;;1.39;93.00;100201.61;1753440;82;21302;-78
2020/12/13 02:48:32;;;;;;;35.10;24.98;;;;;;;1.39;92.97;100205.16;1753500;82;21889;-77
2020/12/13 02:51:38;;;;;;;28.65;17.32;;;;;;;1.41;92.89;100214.01;1753622;82;21168;-77
2020/12/13 02:54:44;;;;;;;39.48;20.85;;;;;;;1.42;92.81;100198.20;1753314;81;21318;-78
2020/12/13 02:57:49;;;;;;;32.08;17.05;;;;;;;1.41;92.73;100203.69;1753400;82;21286;-78
2020/12/13 03:00:56;;;;;;;50.28;39.50;;;;;;;1.38;92.66;100204.80;1752415;82;21888;-78
2020/12/13 03:04:02;;;;;;;29.42;21.33;;;;;;;1.36;92.72;100196.45;1753435;82;21200;-78
2020/12/13 03:07:09;;;;;;;50.92;38.55;;;;;;;1.34;92.79;100193.03;1753363;82;21207;-78
2020/12/13 03:10:14;;;;;;;39.03;20.30;;;;;;;1.33;92.79;100180.55;1752104;82;21366;-77
2020/12/13 03:13:20;;;;;;;41.77;27.35;;;;;;;1.31;92.81;100183.34;1753711;82;21342;-78
2020/12/13 03:16:27;;;;;;;36.73;20.77;;;;;;;1.29;92.79;100175.87;1753804;82;21921;-78
2020/12/13 03:19:32;;;;;;;59.73;45.67;;;;;;;1.28;92.77;100179.06;1753753;82;21838;-78
2020/12/13 03:22:39;;;;;;;34.40;18.55;;;;;;;1.26;92.75;100198.52;1753751;82;21833;-78
2020/12/13 03:25:45;;;;;;;36.65;20.48;;;;;;;1.26;92.75;100206.61;1753412;82;21294;-77
2020/12/13 03:28:51;;;;;;;41.13;24.07;;;;;;;1.25;92.72;100204.04;1751872;82;21318;-77
2020/12/13 03:31:57;;;;;;;50.35;37.40;;;;;;;1.26;92.63;100199.87;1752075;82;21322;-78
2020/12/13 03:35:03;;;;;;;26.00;15.90;;;;;;;1.24;92.62;100192.90;1753284;82;21310;-78
2020/12/13 03:38:10;;;;;;;39.25;23.90;;;;;;;1.24;92.62;100198.28;1752391;80;21901;-78
2020/12/13 03:41:16;;;;;;;59.00;43.45;;;;;;;1.24;92.58;100192.90;1752354;82;21345;-78
2020/12/13 03:44:23;;;;;;;50.85;38.58;;;;;;;1.22;92.51;100202.92;1753104;82;21195;-78
2020/12/13 03:47:28;;;;;;;38.50;27.55;;;;;;;1.20;92.40;100189.58;1753038;82;21203;-78
2020/12/13 03:50:38;;;;;;;35.80;23.22;;;;;;;1.16;92.33;100196.17;1752629;82;21208;-78
2020/12/13 03:53:44;;;;;;;80.80;65.72;;;;;;;1.16;92.31;100192.13;1752955;82;21322;-78
2020/12/13 03:56:49;;;;;;;37.05;23.40;;;;;;;1.17;92.30;100194.34;1738650;81;21220;-78
2020/12/13 03:59:56;;;;;;;50.73;38.40;;;;;;;1.16;92.29;100196.67;1738182;82;21232;-78
2020/12/13 04:03:04;;;;;;;23.98;13.53;;;;;;;1.15;92.25;100201.20;1738170;82;21818;-78
2020/12/13 04:06:10;;;;;;;35.60;25.02;;;;;;;1.16;92.12;100207.45;1738083;82;21842;-77
2020/12/13 04:09:16;;;;;;;38.40;24.98;;;;;;;1.17;92.03;100208.66;1737526;82;21200;-77
2020/12/13 04:12:23;;;;;;;43.08;32.98;;;;;;;1.19;91.97;100215.30;1736885;82;21870;-77
2020/12/13 04:15:29;;;;;;;38.38;24.80;;;;;;;1.20;91.90;100216.52;1738168;82;21354;-77
2020/12/13 04:18:36;;;;;;;42.83;28.60;;;;;;;1.19;91.75;100219.34;1738237;82;21835;-78
2020/12/13 04:21:42;;;;;;;25.68;13.60;;;;;;;1.17;91.68;100204.62;1737364;82;21330;-77
2020/12/13 04:24:48;;;;;;;21.25;10.48;;;;;;;1.15;91.55;100213.33;1737004;82;21366;-77
2020/12/13 04:27:54;;;;;;;22.15;9.35;;;;;;;1.14;91.43;100219.70;1736717;82;21240;-77
2020/12/13 04:31:00;;;;;;;21.33;10.15;;;;;;;1.13;91.34;100224.72;1737950;82;21189;-77
2020/12/13 04:34:07;;;;;;;22.20;10.78;;;;;;;1.09;91.31;100215.16;1738291;82;21291;-77
2020/12/13 04:37:13;;;;;;;21.00;10.78;;;;;;;1.05;91.33;100208.28;1737646;81;21323;-78
2020/12/13 04:40:18;;;;;;;21.00;10.05;;;;;;;1.01;91.33;100213.53;1737120;82;21216;-78
2020/12/13 04:43:25;;;;;;;24.07;11.15;;;;;;;0.98;91.38;100211.92;1738188;82;21291;-77
2020/12/13 04:46:33;;;;;;;23.32;11.12;;;;;;;0.96;91.58;100216.58;1738109;82;21553;-78
2020/12/13 04:49:41;;;;;;;19.60;9.83;;;;;;;0.97;91.82;100217.44;1738086;82;21240;-78
2020/12/13 04:52:46;;;;;;;18.75;9.85;;;;;;;0.96;91.93;100215.72;1736837;82;21625;-78
2020/12/13 04:56:04;;;;;;;21.93;10.25;;;;;;;0.96;92.01;100230.53;1738735;81;21779;-78
2020/12/13 04:59:13;;;;;;;20.95;8.88;;;;;;;0.94;92.04;100220.34;1753068;82;21366;-78
2020/12/13 05:02:19;;;;;;;19.98;10.08;;;;;;;0.92;92.04;100216.44;1752789;82;21388;-78
2020/12/13 05:05:25;;;;;;;20.95;10.43;;;;;;;0.90;92.04;100224.28;1753454;82;21965;-78
2020/12/13 05:08:36;;;;;;;19.70;10.25;;;;;;;0.92;92.11;100216.92;1753469;82;21616;-78
2020/12/13 05:11:46;;;;;;;26.97;11.25;;;;;;;0.92;92.07;100223.66;1753219;82;21187;-78
2020/12/13 05:14:55;;;;;;;24.77;10.98;;;;;;;0.92;92.08;100223.66;1753354;82;21731;-78
2020/12/13 05:18:00;;;;;;;22.45;10.50;;;;;;;0.92;92.06;100230.39;1753485;82;21779;-78
2020/12/13 05:21:06;;;;;;;18.20;9.53;;;;;;;0.92;91.98;100235.29;1753282;82;21298;-78
2020/12/13 05:24:14;;;;;;;17.65;10.30;;;;;;;0.92;92.01;100231.25;1753477;82;21814;-78
2020/12/13 05:27:14;;;;;;;20.48;10.60;;;;;;;0.96;92.01;100229.19;1753598;82;21794;-78
2020/12/13 05:30:20;;;;;;;25.50;10.50;;;;;;;1.00;91.91;100226.14;1753493;82;21841;-78
2020/12/13 05:33:35;;;;;;;22.60;9.38;;;;;;;0.99;91.62;100242.44;1752247;82;21188;-79
2020/12/13 05:36:42;;;;;;;20.35;10.40;;;;;;;0.99;91.41;100239.73;1753589;80;21325;-78
2020/12/13 05:40:01;;;;;;;20.40;11.43;;;;;;;0.98;91.29;100229.42;1753541;82;21306;-77
2020/12/13 05:43:10;;;;;;;24.52;11.45;;;;;;;0.99;91.22;100228.97;1752127;82;21314;-77
2020/12/13 05:50:03;;;;;;;20.82;10.70;;;;;;;0.96;91.11;100225.15;1703570;84;21314;-78
2020/12/13 05:52:57;;;;;;;21.60;10.85;;;;;;;0.95;91.14;100231.03;1752940;82;21286;-78
2020/12/13 05:56:02;;;;;;;26.02;11.45;;;;;;;0.91;91.31;100232.23;1752806;82;21322;-77
2020/12/13 05:59:09;;;;;;;23.07;10.50;;;;;;;0.87;91.54;100244.70;1769298;81;21308;-78
2020/12/13 06:02:17;;;;;;;21.15;11.25;;;;;;;0.77;91.81;100243.19;1772537;81;21379;-78
2020/12/13 06:05:24;;;;;;;33.10;12.93;;;;;;;0.72;92.12;100243.53;1771473;81;21320;-78
2020/12/13 06:08:25;;;;;;;24.45;12.07;;;;;;;0.68;92.39;100244.73;1771270;81;21344;-78
2020/12/13 06:11:30;;;;;;;21.65;11.38;;;;;;;0.65;92.57;100258.91;1772126;81;21332;-77
2020/12/13 06:14:41;;;;;;;23.50;11.35;;;;;;;0.64;92.71;100261.23;1772550;81;21227;-77
2020/12/13 06:17:47;;;;;;;21.10;11.60;;;;;;;0.63;92.78;100258.17;1772625;81;21182;-77
2020/12/13 06:20:52;;;;;;;21.65;10.90;;;;;;;0.66;92.86;100248.04;1754067;81;21296;-78
2020/12/13 06:23:58;;;;;;;23.98;11.80;;;;;;;0.70;92.88;100262.11;1753393;81;21202;-77
2020/12/13 06:27:03;;;;;;;25.62;12.37;;;;;;;0.72;92.89;100257.00;1753296;81;21331;-77
2020/12/13 06:30:11;;;;;;;24.40;11.70;;;;;;;0.75;92.84;100255.43;1772742;81;21300;-78
2020/12/13 06:33:18;;;;;;;25.75;12.80;;;;;;;0.75;92.66;100251.85;1772209;81;21296;-77
2020/12/13 06:36:29;;;;;;;22.67;10.65;;;;;;;0.71;92.44;100241.82;1772727;79;21300;-78
2020/12/13 06:39:35;;;;;;;20.97;12.05;;;;;;;0.73;92.30;100249.28;1755062;81;21297;-78
2020/12/13 06:42:42;;;;;;;27.58;12.40;;;;;;;0.71;92.23;100255.77;1772236;81;21248;-78
2020/12/13 06:45:48;;;;;;;22.02;12.10;;;;;;;0.67;92.23;100238.98;1772684;81;21284;-78
2020/12/13 06:48:55;;;;;;;27.32;12.43;;;;;;;0.68;92.33;100239.34;1772741;81;21868;-78
2020/12/13 06:52:02;;;;;;;24.10;11.80;;;;;;;0.67;92.38;100248.41;1772711;81;21320;-78
2020/12/13 06:55:11;;;;;;;25.52;12.90;;;;;;;0.66;92.46;100253.42;1772637;81;21301;-78
2020/12/13 06:58:18;;;;;;;19.10;11.30;;;;;;;0.66;92.58;100249.84;1771423;81;21351;-78
2020/12/13 07:01:26;;;;;;;23.00;11.93;;;;;;;0.65;92.65;100243.61;1754678;81;21305;-78
2020/12/13 07:04:36;;;;;;;26.33;11.60;;;;;;;0.64;92.71;100243.23;1771665;81;21859;-78
2020/12/13 07:07:47;;;;;;;25.97;12.68;;;;;;;0.64;92.74;100235.16;1772837;81;21542;-78
2020/12/13 07:10:53;;;;;;;21.87;12.05;;;;;;;0.64;92.70;100242.38;1771330;81;21793;-78
2020/12/13 07:14:01;;;;;;;24.02;12.40;;;;;;;0.67;92.66;100236.30;1772098;81;21312;-78
2020/12/13 07:17:09;;;;;;;28.87;13.05;;;;;;;0.69;92.49;100245.59;1754701;81;21876;-78
2020/12/13 07:20:16;;;;;;;27.42;12.58;;;;;;;0.67;92.39;100242.17;1772991;81;21595;-78
2020/12/13 07:23:22;;;;;;;24.02;12.73;;;;;;;0.67;92.27;100253.79;1772466;81;21320;-78
2020/12/13 07:26:28;;;;;;;25.75;12.25;;;;;;;0.67;92.19;100263.21;1772564;81;21198;-78
2020/12/13 07:29:34;;;;;;;23.15;11.50;;;;;;;0.70;92.10;100251.34;1772499;81;21292;-78
2020/12/13 07:32:40;;;;;;;23.73;11.03;;;;;;;0.74;91.98;100253.69;1772649;81;21305;-78
2020/12/13 07:35:46;;;;;;;21.15;11.45;;;;;;;0.77;91.74;100258.00;1754202;81;21836;-78
2020/12/13 07:38:51;;;;;;;21.75;11.38;;;;;;;0.79;91.55;100260.08;1754111;81;21188;-78
2020/12/13 07:41:57;;;;;;;23.67;12.90;;;;;;;0.78;91.42;100260.20;1772588;81;21331;-78
2020/12/13 07:45:08;;;;;;;21.45;11.65;;;;;;;0.76;91.38;100253.11;1771394;81;21922;-78
2020/12/13 07:48:14;;;;;;;22.98;13.15;;;;;;;0.73;91.48;100258.70;1772389;81;21249;-78
2020/12/13 07:51:21;;;;;;;26.70;12.70;;;;;;;0.73;91.67;100250.63;1770891;81;21300;-78
2020/12/13 07:54:39;;;;;;;26.68;12.47;;;;;;;0.73;92.01;100249.28;1752671;81;21813;-78
2020/12/13 07:57:46;;;;;;;24.55;12.15;;;;;;;0.74;92.30;100242.92;1772408;81;21375;-78
2020/12/13 08:00:52;;;;;;;23.95;13.13;;;;;;;0.75;92.46;100240.63;1770273;81;21870;-76
2020/12/13 08:03:57;;;;;;;30.20;13.03;;;;;;;0.76;92.58;100230.70;1772038;81;21377;-78
2020/12/13 08:07:12;;;;;;;29.67;13.22;;;;;;;0.80;92.66;100225.92;1770721;81;21308;-77
2020/12/13 08:10:15;;;;;;;26.57;13.20;;;;;;;0.82;92.60;100226.69;1772344;81;21233;-76
2020/12/13 08:13:23;;;;;;;24.87;13.13;;;;;;;0.83;92.64;100221.66;1771231;81;21281;-78
2020/12/13 08:16:35;;;;;;;26.23;13.83;;;;;;;0.79;92.44;100206.22;1772395;81;21320;-78
2020/12/13 08:19:58;;;;;;;31.27;15.63;;;;;;;0.80;92.55;100208.42;1772591;81;21292;-78
2020/12/13 08:23:05;;;;;;;25.82;14.20;;;;;;;0.82;92.61;100213.22;1772567;81;21293;-78
2020/12/13 08:26:12;;;;;;;28.85;14.75;;;;;;;0.80;92.56;100215.16;1772688;81;21304;-78
2020/12/13 08:29:17;;;;;;;30.25;13.60;;;;;;;0.81;92.38;100230.36;1771392;81;21201;-78
2020/12/13 08:32:24;;;;;;;28.52;14.50;;;;;;;0.85;92.30;100242.59;1772673;81;21717;-78
2020/12/13 08:35:32;;;;;;;26.40;13.98;;;;;;;0.86;92.00;100237.60;1771242;81;21305;-78
2020/12/13 08:38:37;;;;;;;33.58;14.33;;;;;;;0.85;91.92;100225.97;1771008;81;21867;-78
2020/12/13 08:41:43;;;;;;;26.68;13.53;;;;;;;0.86;92.09;100204.80;1771242;81;21360;-77
2020/12/13 08:44:51;;;;;;;29.63;13.00;;;;;;;0.90;92.32;100207.63;1771360;81;21868;-78
2020/12/13 08:47:57;;;;;;;29.52;14.53;;;;;;;0.92;92.34;100207.50;1772658;81;21288;-78
2020/12/13 08:51:16;;;;;;;28.52;13.60;;;;;;;0.93;92.20;100198.44;1772525;81;21565;-78
2020/12/13 08:54:22;;;;;;;29.02;14.25;;;;;;;0.97;92.25;100202.13;1772430;81;21309;-78
2020/12/13 08:57:46;;;;;;;32.40;14.13;;;;;;;1.01;92.10;100206.80;1771982;81;21312;-78
2020/12/13 09:00:53;;;;;;;27.82;14.03;;;;;;;1.09;92.18;100203.03;1771373;81;21371;-78
2020/12/13 09:03:58;;;;;;;30.08;14.03;;;;;;;1.13;91.82;100197.78;1771115;81;21292;-78
2020/12/13 09:07:07;;;;;;;31.75;13.13;;;;;;;1.16;91.61;100196.17;1772657;81;21194;-78
2020/12/13 09:10:20;;;;;;;27.22;12.73;;;;;;;1.22;91.47;100194.84;1772804;81;21288;-78
2020/12/13 09:13:25;;;;;;;29.20;13.98;;;;;;;1.27;91.34;100193.53;1771278;81;21190;-78
2020/12/13 09:16:39;;;;;;;27.90;14.03;;;;;;;1.23;90.90;100193.39;1771436;81;21308;-78
2020/12/13 09:19:57;;;;;;;33.67;14.38;;;;;;;1.25;90.66;100187.38;1772706;81;21907;-78
2020/12/13 09:23:17;;;;;;;28.32;13.95;;;;;;;1.27;90.52;100181.86;1772594;81;21292;-77
2020/12/13 09:26:32;;;;;;;23.80;12.85;;;;;;;1.31;90.63;100176.60;1771768;81;21270;-77
2020/12/13 09:29:39;;;;;;;25.25;13.90;;;;;;;1.37;90.62;100173.94;1772449;81;21335;-78
2020/12/13 09:32:43;;;;;;;30.85;13.03;;;;;;;1.41;90.48;100165.49;1772669;81;21193;-78
2020/12/13 09:35:49;;;;;;;25.50;12.88;;;;;;;1.48;90.37;100163.16;1772052;81;21170;-77
2020/12/13 09:38:57;;;;;;;28.15;13.08;;;;;;;1.54;90.23;100168.05;1772708;81;21737;-78
2020/12/13 09:42:03;;;;;;;30.80;13.95;;;;;;;1.61;90.09;100169.78;1771317;81;21201;-77
2020/12/13 09:45:08;;;;;;;28.42;13.68;;;;;;;1.64;89.86;100166.82;1772015;81;21323;-77
2020/12/13 09:48:14;;;;;;;28.12;14.20;;;;;;;1.67;89.69;100167.44;1772756;81;21847;-78
2020/12/13 09:51:24;;;;;;;22.90;13.10;;;;;;;1.69;89.45;100170.86;1772731;81;21190;-78
2020/12/13 09:54:32;;;;;;;29.07;15.53;;;;;;;1.68;89.31;100161.06;1772599;81;21190;-77
2020/12/13 09:57:37;;;;;;;28.32;13.28;;;;;;;1.69;89.30;100168.66;1772683;81;21304;-78
2020/12/13 10:00:44;;;;;;;23.60;12.98;;;;;;;1.69;89.22;100162.77;1771855;81;21906;-78
2020/12/13 10:03:53;;;;;;;24.25;12.55;;;;;;;1.65;88.93;100163.17;1752060;81;21314;-78
2020/12/13 10:08:56;;;;;;;31.70;14.55;;;;;;;1.60;88.94;100172.97;1752053;82;21312;-78
2020/12/13 10:10:05;;;;;;;31.75;14.15;;;;;;;1.53;89.13;100163.64;1744307;82;21294;-78
2020/12/13 10:13:11;;;;;;;28.12;12.98;;;;;;;1.50;89.48;100159.34;1753542;82;21144;-78
2020/12/13 10:16:18;;;;;;;25.70;13.78;;;;;;;1.50;89.62;100157.99;1752399;82;21326;-78
2020/12/13 10:19:25;;;;;;;26.57;12.73;;;;;;;1.56;89.73;100153.98;1753945;82;21842;-78
2020/12/13 10:22:31;;;;;;;30.08;14.23;;;;;;;1.60;89.62;100155.45;1753536;82;21244;-78
2020/12/13 10:25:37;;;;;;;31.33;13.72;;;;;;;1.67;89.71;100155.31;1753333;82;21196;-78
2020/12/13 10:28:43;;;;;;;27.35;13.40;;;;;;;1.71;89.43;100153.23;1753482;82;21838;-77
2020/12/13 10:31:49;;;;;;;27.93;14.15;;;;;;;1.69;89.10;100145.24;1752135;82;21378;-78
2020/12/13 10:34:57;;;;;;;29.82;14.53;;;;;;;1.68;89.14;100143.53;1753557;82;21244;-77
2020/12/13 10:38:02;;;;;;;23.73;13.93;;;;;;;1.68;89.09;100132.75;1752078;80;21842;-77
2020/12/13 10:41:07;;;;;;;29.20;15.28;;;;;;;1.71;89.14;100133.86;1753148;82;21315;-77
2020/12/13 10:44:14;;;;;;;37.13;15.30;;;;;;;1.69;88.89;100122.81;1753390;82;21896;-78
2020/12/13 10:47:21;;;;;;;28.83;14.45;;;;;;;1.68;88.85;100141.33;1752002;82;21311;-78
2020/12/13 10:50:26;;;;;;;29.92;15.55;;;;;;;1.70;88.89;100156.91;1752051;82;21307;-78
2020/12/13 10:53:31;;;;;;;27.22;14.90;;;;;;;1.71;88.76;100161.32;1753467;82;21839;-78
2020/12/13 10:56:37;;;;;;;30.65;15.13;;;;;;;1.74;88.87;100167.33;1753127;82;21295;-78
2020/12/13 10:59:43;;;;;;;33.48;14.30;;;;;;;1.79;88.88;100166.47;1753463;82;21303;-78
2020/12/13 11:02:49;;;;;;;30.92;14.90;;;;;;;1.85;88.41;100166.95;1752816;81;21342;-78
2020/12/13 11:05:54;;;;;;;28.32;13.98;;;;;;;1.89;88.23;100158.48;1753319;82;21256;-78
2020/12/13 11:09:04;;;;;;;29.55;14.38;;;;;;;1.95;87.99;100159.33;1753065;82;21885;-77
2020/12/13 11:12:08;;;;;;;31.20;15.43;;;;;;;1.98;87.86;100167.19;1753263;82;21861;-77
2020/12/13 11:15:14;;;;;;;32.60;15.28;;;;;;;2.04;87.80;100174.77;1753294;82;21177;-77
2020/12/13 11:18:19;;;;;;;34.38;14.93;;;;;;;2.06;87.48;100174.62;1752062;82;21195;-78
2020/12/13 11:21:25;;;;;;;38.17;14.83;;;;;;;2.07;87.20;100168.28;1752465;82;21299;-78
2020/12/13 11:24:32;;;;;;;28.23;14.33;;;;;;;2.07;86.99;100173.67;1751922;82;21814;-77
2020/12/13 11:27:38;;;;;;;26.10;14.28;;;;;;;2.07;87.37;100157.95;1752768;82;21893;-78
2020/12/13 11:30:43;;;;;;;27.85;12.98;;;;;;;2.06;87.39;100157.09;1753408;82;21180;-77
2020/12/13 11:33:50;;;;;;;27.55;14.50;;;;;;;2.02;87.18;100152.93;1753298;82;21184;-78
2020/12/13 11:36:56;;;;;;;29.12;13.83;;;;;;;1.97;87.21;100159.19;1753118;80;21330;-77
2020/12/13 11:40:02;;;;;;;33.20;14.63;;;;;;;1.94;87.28;100166.20;1753614;82;21195;-77
2020/12/13 11:43:08;;;;;;;28.30;13.20;;;;;;;1.95;87.24;100176.01;1751778;82;21310;-77
2020/12/13 11:46:14;;;;;;;33.30;13.72;;;;;;;1.98;87.19;100175.77;1753149;82;21302;-77
2020/12/13 11:49:24;;;;;;;35.70;15.40;;;;;;;2.03;87.16;100172.20;1731556;82;21291;-77
2020/12/13 11:52:29;;;;;;;29.85;14.10;;;;;;;2.02;86.80;100170.47;1753484;82;21315;-77
2020/12/13 11:55:37;;;;;;;29.98;14.50;;;;;;;2.02;86.97;100173.16;1753433;82;21822;-77
2020/12/13 11:58:43;;;;;;;25.68;14.60;;;;;;;2.04;87.05;100171.22;1752392;82;21893;-77
2020/12/13 12:01:52;;;;;;;31.33;15.72;;;;;;;2.06;86.97;100174.62;1752083;82;21317;-77
2020/12/13 12:04:57;;;;;;;32.98;14.93;;;;;;;2.07;87.10;100176.37;1763162;81;21301;-78
2020/12/13 12:08:03;;;;;;;29.07;13.95;;;;;;;2.04;87.11;100166.67;1771906;81;21911;-77
2020/12/13 12:11:08;;;;;;;37.53;15.40;;;;;;;2.03;87.34;100160.06;1772701;81;21828;-77
2020/12/13 12:14:15;;;;;;;36.53;16.32;;;;;;;2.00;87.38;100155.77;1772584;81;21251;-77
2020/12/13 12:17:20;;;;;;;33.23;16.67;;;;;;;1.88;87.15;100157.24;1772376;81;21934;-77
2020/12/13 12:20:27;;;;;;;42.17;16.55;;;;;;;1.78;87.26;100160.68;1772735;81;21340;-78
2020/12/13 12:23:34;;;;;;;35.85;17.27;;;;;;;1.70;87.77;100163.16;1770816;81;21190;-78
2020/12/13 12:26:40;;;;;;;36.45;16.42;;;;;;;1.60;87.75;100164.00;1772191;81;21230;-78
2020/12/13 12:29:47;;;;;;;37.78;18.30;;;;;;;1.53;87.98;100171.23;1772059;81;21308;-78
2020/12/13 12:32:53;;;;;;;43.10;17.30;;;;;;;1.49;88.16;100171.11;1771656;81;21343;-77
2020/12/13 12:36:02;;;;;;;40.67;16.70;;;;;;;1.47;88.46;100174.92;1770989;81;21772;-77
2020/12/13 12:39:07;;;;;;;36.17;17.35;;;;;;;1.42;88.57;100159.12;1770856;81;21335;-77
2020/12/13 12:42:14;;;;;;;45.25;17.10;;;;;;;1.40;88.69;100169.14;1772298;81;21815;-77
2020/12/13 12:45:20;;;;;;;41.13;17.77;;;;;;;1.38;88.90;100185.94;1772677;81;21496;-77
2020/12/13 12:48:25;;;;;;;34.80;17.75;;;;;;;1.38;89.02;100197.21;1771749;81;21205;-78
2020/12/13 12:51:32;;;;;;;40.83;16.85;;;;;;;1.35;88.94;100186.17;1772774;81;21294;-77
2020/12/13 12:54:37;;;;;;;37.80;17.15;;;;;;;1.33;88.95;100194.88;1772626;81;21986;-78
2020/12/13 12:57:43;;;;;;;36.60;15.28;;;;;;;1.34;89.09;100198.42;1771120;81;21305;-77
2020/12/13 13:00:52;;;;;;;39.60;17.77;;;;;;;1.36;89.19;100202.70;1772713;81;21336;-77
2020/12/13 13:04:01;;;;;;;38.70;18.02;;;;;;;1.40;89.24;100197.94;1771705;81;21230;-77
2020/12/13 13:07:17;;;;;;;32.58;15.60;;;;;;;1.38;89.15;100199.41;1770498;81;21225;-78
2020/12/13 13:10:28;;;;;;;34.70;15.70;;;;;;;1.36;89.16;100204.54;1772736;81;21784;-77
2020/12/13 13:13:29;;;;;;;37.85;17.27;;;;;;;1.33;89.29;100203.45;1772733;81;21971;-77
2020/12/13 13:16:47;;;;;;;37.33;16.40;;;;;;;1.34;89.43;100193.03;1877389;76;22597;-78
2020/12/13 13:19:57;;;;;;;39.80;17.10;;;;;;;1.29;89.56;100212.26;1849288;77;21783;-78
2020/12/13 13:23:02;;;;;;;31.87;15.63;;;;;;;1.24;89.62;100211.27;1851212;77;21295;-78
2020/12/13 13:26:08;;;;;;;41.15;16.97;;;;;;;1.23;89.76;100198.78;1849701;77;21290;-78
2020/12/13 13:29:14;;;;;;;35.40;16.52;;;;;;;1.20;89.70;100199.00;1849234;77;21255;-78
2020/12/13 13:32:19;;;;;;;44.88;18.15;;;;;;;1.17;89.71;100201.92;1849095;77;21276;-78
2020/12/13 13:35:26;;;;;;;36.75;16.00;;;;;;;1.17;89.81;100201.08;1848946;77;21325;-78
2020/12/13 13:38:31;;;;;;;36.98;16.90;;;;;;;1.14;89.94;100217.00;1817121;77;21310;-78
2020/12/13 13:41:38;;;;;;;38.33;16.23;;;;;;;1.09;90.11;100211.12;1815950;79;21288;-78
2020/12/13 13:44:51;;;;;;;41.80;17.30;;;;;;;1.08;90.28;100212.56;1815685;79;21156;-78
2020/12/13 13:48:09;;;;;;;38.10;17.77;;;;;;;1.05;90.46;100211.47;1817411;79;21153;-78
2020/12/13 13:51:02;;;;;;;35.88;16.70;;;;;;;0.98;90.76;100209.72;1817367;79;21172;-78
2020/12/13 13:54:10;;;;;;;32.50;15.63;;;;;;;0.98;90.99;100202.98;1817469;79;21377;-77
2020/12/13 13:57:24;;;;;;;30.12;13.85;;;;;;;0.98;91.15;100197.10;1817472;79;21314;-77
2020/12/13 14:00:29;;;;;;;37.83;16.55;;;;;;;1.04;91.25;100203.88;1816753;79;21399;-77
2020/12/13 14:03:39;;;;;;;38.67;17.52;;;;;;;1.05;91.11;100208.77;1817315;79;21330;-77
2020/12/13 14:10:01;;;;;;;43.52;18.30;;;;;;;1.00;91.00;100210.47;1817398;79;21866;-77
2020/12/13 14:13:07;;;;;;;41.65;17.37;;;;;;;0.97;91.05;100202.13;1817619;79;21248;-77
2020/12/13 14:16:13;;;;;;;35.60;16.52;;;;;;;0.97;91.20;100209.34;1810452;79;21342;-77
2020/12/13 14:19:19;;;;;;;41.75;18.50;;;;;;;0.95;91.27;100214.86;1801958;79;21291;-77
2020/12/13 14:22:23;;;;;;;36.03;17.48;;;;;;;0.94;91.35;100211.81;1803556;79;21228;-77
2020/12/13 14:25:30;;;;;;;46.28;18.70;;;;;;;0.95;91.46;100221.59;1803524;79;21185;-78
2020/12/13 14:28:36;;;;;;;39.98;16.77;;;;;;;0.95;91.49;100218.91;1803025;79;21176;-78